createdAt,value
2018-12-30T00:10:11.785Z,100.00
2018-12-30T00:15:12.620Z,100.00
2018-12-30T00:20:13.724Z,100.00
2018-12-30T00:25:14.446Z,100.00
2018-12-30T00:30:15.143Z,100.00
2018-12-30T00:35:17.205Z,99.49
2018-12-30T00:40:20.499Z,98.57
2018-12-30T00:45:21.209Z,97.67
2018-12-30T00:50:22.220Z,95.45
2018-12-30T00:55:23.204Z,96.10
2018-12-30T01:00:24.153Z,95.41
2018-12-30T01:05:26.345Z,95.29
2018-12-30T01:10:27.356Z,95.15
2018-12-30T01:15:28.043Z,93.71
2018-12-30T01:20:29.048Z,94.09
2018-12-30T01:25:29.823Z,92.52
2018-12-30T01:30:30.741Z,93.46
2018-12-30T01:35:31.523Z,93.94
2018-12-30T01:40:32.515Z,92.35
2018-12-30T01:45:33.201Z,92.83
2018-12-30T01:50:34.173Z,92.56
2018-12-30T01:55:35.228Z,91.25
2018-12-30T02:00:38.932Z,91.79
2018-12-30T02:05:39.720Z,92.41
2018-12-30T02:10:40.714Z,92.71
2018-12-30T02:15:41.948Z,93.49
2018-12-30T02:20:42.887Z,93.12
2018-12-30T02:25:43.861Z,94.05
2018-12-30T02:30:44.995Z,94.29
2018-12-30T02:35:45.983Z,96.46
2018-12-30T02:40:46.717Z,96.81
2018-12-30T02:45:47.401Z,97.88
2018-12-30T02:50:48.113Z,97.34
2018-12-30T02:55:48.961Z,96.52
2018-12-30T03:00:49.724Z,97.45
2018-12-30T03:05:50.423Z,97.83
2018-12-30T03:10:51.316Z,96.81
2018-12-30T03:15:52.259Z,98.01
2018-12-30T03:20:53.208Z,98.55
2018-12-30T03:25:53.956Z,98.79
2018-12-30T03:30:55.035Z,97.85
2018-12-30T03:35:56.688Z,98.29
2018-12-30T03:40:57.647Z,97.44
2018-12-30T03:45:58.609Z,97.97
2018-12-30T03:50:59.365Z,98.12
2018-12-30T03:56:00.346Z,97.13
2018-12-30T04:01:01.393Z,98.14
2018-12-30T04:06:02.372Z,98.61
2018-12-30T04:11:03.209Z,97.45
2018-12-30T04:16:04.216Z,98.14
2018-12-30T04:21:05.160Z,97.96
2018-12-30T04:26:05.873Z,97.49
2018-12-30T04:31:06.880Z,97.19
2018-12-30T04:36:07.540Z,96.77
2018-12-30T04:41:08.532Z,97.04
2018-12-30T04:46:09.314Z,97.53
2018-12-30T04:51:10.312Z,97.91
2018-12-30T04:56:11.198Z,98.30
2018-12-30T05:01:12.310Z,98.36
2018-12-30T05:06:13.009Z,98.32
2018-12-30T05:11:13.648Z,98.79
2018-12-30T05:16:14.417Z,99.33
2018-12-30T05:21:15.368Z,98.81
2018-12-30T05:26:16.413Z,98.33
2018-12-30T05:31:17.384Z,97.98
2018-12-30T05:36:18.231Z,97.93
2018-12-30T05:41:19.225Z,97.57
2018-12-30T05:46:20.173Z,97.97
2018-12-30T05:51:21.971Z,99.01
2018-12-30T05:56:22.613Z,99.31
2018-12-30T06:01:23.316Z,99.50
2018-12-30T06:06:24.089Z,99.52
2018-12-30T06:11:24.787Z,99.66
2018-12-30T06:16:25.464Z,97.74
2018-12-30T06:21:26.461Z,96.32
2018-12-30T06:26:27.381Z,95.59
2018-12-30T06:31:28.390Z,93.99
2018-12-30T06:36:29.319Z,95.03
2018-12-30T06:41:31.284Z,94.97
2018-12-30T06:46:32.015Z,95.45
2018-12-30T06:51:32.991Z,95.62
2018-12-30T06:56:35.008Z,96.50
2018-12-30T07:01:35.932Z,97.78
2018-12-30T07:06:38.338Z,98.33
2018-12-30T07:11:39.142Z,97.71
2018-12-30T07:16:40.009Z,97.61
2018-12-30T07:21:40.999Z,98.45
2018-12-30T07:26:41.737Z,98.29
2018-12-30T07:31:42.743Z,98.37
2018-12-30T07:36:43.626Z,97.86
2018-12-30T07:41:44.638Z,98.42
2018-12-30T07:46:45.589Z,98.91
2018-12-30T07:51:46.533Z,99.37
2018-12-30T07:56:47.275Z,99.16
2018-12-30T08:01:48.235Z,99.82
2018-12-30T08:06:49.272Z,100.00
2018-12-30T08:11:50.270Z,100.00
2018-12-30T08:16:50.979Z,100.00
2018-12-30T08:21:51.962Z,100.00
2018-12-30T08:26:52.932Z,100.00
2018-12-30T08:31:53.879Z,100.00
2018-12-30T08:36:54.823Z,100.00
2018-12-30T08:41:55.566Z,100.00
2018-12-30T08:46:56.561Z,100.00
2018-12-30T08:51:57.255Z,99.88
2018-12-30T08:56:58.236Z,100.00
2018-12-30T09:01:58.957Z,99.71
2018-12-30T09:07:00.888Z,99.08
2018-12-30T09:12:02.910Z,99.25
2018-12-30T09:17:04.816Z,99.44
2018-12-30T09:22:05.686Z,99.31
2018-12-30T09:27:06.662Z,99.04
2018-12-30T09:32:07.557Z,99.37
2018-12-30T09:37:08.303Z,99.54
2018-12-30T09:42:09.220Z,98.73
2018-12-30T09:47:10.158Z,99.31
2018-12-30T09:52:10.892Z,99.55
2018-12-30T09:57:11.624Z,99.65
2018-12-30T10:02:12.416Z,100.00
2018-12-30T10:07:13.141Z,100.00
2018-12-30T10:12:14.070Z,100.00
2018-12-30T10:17:15.042Z,100.00
2018-12-30T10:22:15.910Z,100.00
2018-12-30T10:27:16.625Z,100.00
2018-12-30T10:32:17.565Z,100.00
2018-12-30T10:37:18.587Z,100.00
2018-12-30T10:42:19.362Z,100.00
2018-12-30T10:47:20.185Z,100.00
2018-12-30T10:52:22.156Z,100.00
2018-12-30T10:57:23.745Z,100.00
2018-12-30T11:02:24.726Z,100.00
2018-12-30T11:07:27.829Z,100.00
2018-12-30T11:12:28.963Z,100.00
2018-12-30T11:17:31.695Z,100.00
2018-12-30T11:22:32.693Z,100.00
2018-12-30T11:27:37.398Z,100.00
2018-12-30T11:32:38.451Z,100.00
2018-12-30T11:37:39.286Z,100.00
2018-12-30T11:42:39.968Z,100.00
2018-12-30T11:47:40.908Z,100.00
2018-12-30T11:52:41.867Z,100.00
2018-12-30T11:57:42.543Z,98.19
2018-12-30T12:02:43.179Z,99.41
2018-12-30T12:07:44.214Z,100.00
2018-12-30T12:12:48.824Z,99.81
2018-12-30T12:17:47.878Z,99.55
2018-12-30T12:22:48.887Z,99.54
2018-12-30T12:27:49.931Z,98.32
2018-12-30T12:32:51.035Z,99.14
2018-12-30T12:37:53.490Z,98.34
2018-12-30T12:42:54.467Z,100.00
2018-12-30T12:47:55.745Z,100.00
2018-12-30T12:52:56.864Z,98.35
2018-12-30T12:57:57.765Z,98.25
2018-12-30T13:03:01.172Z,97.79
2018-12-30T13:08:02.599Z,97.62
2018-12-30T13:13:04.054Z,97.79
2018-12-30T13:18:04.826Z,98.58
2018-12-30T13:23:05.748Z,98.05
2018-12-30T13:28:08.793Z,99.70
2018-12-30T13:33:12.267Z,98.92
2018-12-30T13:38:13.203Z,99.80
2018-12-30T13:43:14.187Z,100.00
2018-12-30T13:48:15.943Z,99.67
2018-12-30T13:53:16.767Z,100.00
2018-12-30T13:58:17.826Z,99.39
2018-12-30T14:03:18.742Z,98.98
2018-12-30T14:08:19.502Z,99.52
2018-12-30T14:13:20.662Z,98.09
2018-12-30T14:18:21.534Z,98.83
2018-12-30T14:23:22.297Z,99.94
2018-12-30T14:28:23.263Z,99.20
2018-12-30T14:33:23.982Z,99.45
2018-12-30T14:38:28.222Z,99.21
2018-12-30T14:43:29.062Z,100.00
2018-12-30T14:48:29.829Z,99.49
2018-12-30T14:53:30.810Z,98.68
2018-12-30T14:58:31.732Z,99.84
2018-12-30T15:03:32.532Z,100.00
2018-12-30T15:08:33.181Z,100.00
2018-12-30T15:13:34.458Z,100.00
2018-12-30T15:18:35.242Z,98.86
2018-12-30T15:23:36.105Z,98.41
2018-12-30T15:28:37.341Z,100.00
2018-12-30T15:33:38.280Z,100.00
2018-12-30T15:38:39.322Z,100.00
2018-12-30T15:43:40.231Z,100.00
2018-12-30T15:48:42.003Z,100.00
2018-12-30T15:53:43.057Z,100.00
2018-12-30T15:58:43.892Z,100.00
2018-12-30T16:03:46.067Z,100.00
2018-12-30T16:08:48.973Z,100.00
2018-12-30T16:13:49.964Z,100.00
2018-12-30T16:18:50.697Z,100.00
2018-12-30T16:23:51.758Z,100.00
2018-12-30T16:28:52.639Z,100.00
2018-12-30T16:33:53.376Z,100.00
2018-12-30T16:38:54.421Z,100.00
2018-12-30T16:43:56.955Z,100.00
2018-12-30T16:48:57.690Z,100.00
2018-12-30T16:53:58.365Z,100.00
2018-12-30T16:59:01.764Z,100.00
2018-12-30T17:04:02.597Z,100.00
2018-12-30T17:09:04.519Z,100.00
2018-12-30T17:14:09.401Z,100.00
2018-12-30T17:19:10.062Z,100.00
2018-12-30T17:24:10.800Z,100.00
2018-12-30T17:29:11.587Z,100.00
2018-12-30T17:34:12.468Z,100.00
2018-12-30T17:39:13.386Z,100.00
2018-12-30T17:44:14.049Z,100.00
2018-12-30T17:49:15.789Z,100.00
2018-12-30T17:54:16.575Z,100.00
2018-12-30T17:59:19.568Z,100.00
2018-12-30T18:04:20.311Z,100.00
2018-12-30T18:09:20.926Z,100.00
2018-12-30T18:14:21.726Z,100.00
2018-12-30T18:19:22.664Z,100.00
2018-12-30T18:24:23.632Z,100.00
2018-12-30T18:29:24.877Z,100.00
2018-12-30T18:34:25.842Z,100.00
2018-12-30T18:39:26.700Z,100.00
2018-12-30T18:44:27.430Z,100.00
2018-12-30T18:49:28.373Z,100.00
2018-12-30T18:54:29.312Z,100.00
2018-12-30T18:59:30.282Z,100.00
2018-12-30T19:04:31.624Z,100.00
2018-12-30T19:09:32.341Z,100.00
2018-12-30T19:14:43.819Z,100.00
2018-12-30T19:19:44.990Z,100.00
2018-12-30T19:24:52.137Z,100.00
2018-12-30T19:29:48.801Z,100.00
2018-12-30T19:34:51.599Z,100.00
2018-12-30T19:53:48.983Z,100.00
2018-12-30T20:07:51.259Z,100.00
2018-12-30T20:12:52.209Z,100.00
2018-12-30T20:17:53.411Z,100.00
2018-12-30T20:22:55.513Z,100.00
2018-12-30T20:27:56.475Z,100.00
2018-12-30T20:32:57.413Z,100.00
2018-12-30T20:37:58.395Z,100.00
2018-12-30T20:43:00.289Z,100.00
2018-12-30T20:48:01.477Z,100.00
2018-12-30T20:53:02.452Z,100.00
2018-12-30T20:58:37.963Z,100.00
2018-12-30T21:10:36.172Z,100.00
2018-12-30T21:28:08.966Z,100.00
2018-12-30T22:00:29.335Z,100.00
2018-12-30T22:10:51.694Z,100.00
2018-12-30T22:15:52.812Z,100.00
2018-12-30T22:20:53.904Z,100.00
2018-12-30T22:25:56.750Z,100.00
2018-12-30T22:30:57.576Z,100.00
2018-12-30T22:35:59.458Z,100.00
2018-12-30T22:41:00.395Z,100.00
2018-12-30T22:46:02.594Z,100.00
2018-12-30T22:51:04.843Z,100.00
2018-12-30T22:56:08.075Z,100.00
2018-12-30T23:01:11.904Z,100.00
2018-12-30T23:06:13.227Z,100.00
2018-12-30T23:11:14.211Z,100.00
2018-12-30T23:16:15.207Z,100.00
2018-12-30T23:21:16.201Z,100.00
2018-12-30T23:26:17.021Z,100.00
2018-12-30T23:31:17.973Z,100.00
2018-12-30T23:36:19.140Z,100.00
2018-12-30T23:41:20.297Z,100.00
2018-12-30T23:46:21.101Z,100.00
2018-12-30T23:51:23.429Z,100.00
2018-12-30T23:56:24.850Z,100.00
